createdAt,value
2023-04-19T00:01:46.968Z,11.30
2023-04-19T00:04:15.505Z,11.20
2023-04-19T00:06:44.702Z,11.20
2023-04-19T00:09:12.294Z,11.20
2023-04-19T00:11:41.184Z,11.10
2023-04-19T00:14:08.894Z,11.20
2023-04-19T00:16:36.944Z,11.10
2023-04-19T00:19:04.486Z,11.00
2023-04-19T00:21:32.031Z,11.10
2023-04-19T00:23:59.673Z,11.00
2023-04-19T00:26:27.252Z,11.00
2023-04-19T00:28:55.026Z,10.90
2023-04-19T00:31:22.567Z,10.90
2023-04-19T00:33:50.270Z,11.00
2023-04-19T00:36:19.088Z,10.90
2023-04-19T00:38:48.017Z,10.90
2023-04-19T00:41:16.995Z,10.80
2023-04-19T00:43:44.606Z,10.80
2023-04-19T00:46:12.571Z,10.80
2023-04-19T00:48:40.541Z,10.70
2023-04-19T00:51:10.593Z,10.50
2023-04-19T00:53:39.186Z,10.60
2023-04-19T00:56:07.174Z,10.50
2023-04-19T00:58:35.022Z,10.40
2023-04-19T01:01:03.836Z,10.40
2023-04-19T01:03:31.867Z,10.50
2023-04-19T01:05:59.668Z,10.40
2023-04-19T01:08:27.206Z,10.40
2023-04-19T01:10:54.820Z,10.40
2023-04-19T01:13:22.426Z,10.30
2023-04-19T01:15:50.227Z,10.30
2023-04-19T01:18:19.435Z,10.20
2023-04-19T01:20:47.184Z,10.40
2023-04-19T01:23:15.094Z,10.20
2023-04-19T01:25:43.470Z,10.20
2023-04-19T01:28:11.382Z,10.20
2023-04-19T01:30:39.179Z,10.20
2023-04-19T01:33:06.878Z,10.30
2023-04-19T01:35:34.487Z,10.20
2023-04-19T01:38:02.205Z,10.10
2023-04-19T01:40:30.113Z,10.10
2023-04-19T01:42:58.664Z,10.10
2023-04-19T01:45:27.126Z,10.10
2023-04-19T01:47:56.151Z,10.10
2023-04-19T01:50:23.776Z,10.10
2023-04-19T01:52:51.363Z,10.10
2023-04-19T01:55:19.131Z,10.10
2023-04-19T01:57:46.674Z,10.10
2023-04-19T02:00:15.321Z,10.20
2023-04-19T02:02:42.981Z,10.20
2023-04-19T02:05:11.584Z,10.40
2023-04-19T02:07:39.353Z,10.30
2023-04-19T02:10:09.398Z,10.20
2023-04-19T02:12:37.017Z,10.10
2023-04-19T02:15:05.095Z,10.10
2023-04-19T02:17:34.622Z,10.10
2023-04-19T02:20:02.266Z,10.00
2023-04-19T02:22:30.053Z,10.00
2023-04-19T02:24:57.583Z,10.10
2023-04-19T02:27:32.520Z,10.10
2023-04-19T02:30:01.335Z,10.00
2023-04-19T02:32:29.803Z,10.10
2023-04-19T02:34:57.438Z,10.10
2023-04-19T02:37:25.200Z,10.10
2023-04-19T02:39:53.023Z,10.00
2023-04-19T02:42:21.839Z,10.10
2023-04-19T02:44:49.391Z,10.10
2023-04-19T02:47:16.968Z,10.20
2023-04-19T02:49:44.671Z,10.30
2023-04-19T02:52:12.495Z,10.20
2023-04-19T02:54:42.257Z,10.20
2023-04-19T02:57:10.324Z,10.10
2023-04-19T02:59:40.368Z,10.10
2023-04-19T03:02:08.113Z,10.00
2023-04-19T03:04:36.685Z,9.90
2023-04-19T03:07:04.875Z,9.90
2023-04-19T03:09:32.495Z,9.90
2023-04-19T03:12:00.218Z,9.80
2023-04-19T03:14:28.046Z,9.90
2023-04-19T03:16:55.895Z,9.90
2023-04-19T03:19:23.884Z,9.90
2023-04-19T03:21:52.834Z,9.90
2023-04-19T03:24:29.612Z,9.90
2023-04-19T03:26:59.392Z,10.00
2023-04-19T03:29:30.244Z,10.10
2023-04-19T03:32:01.994Z,10.20
2023-04-19T03:34:30.708Z,10.20
2023-04-19T03:36:58.317Z,10.20
2023-04-19T03:39:25.890Z,10.20
2023-04-19T03:41:59.215Z,10.20
2023-04-19T03:44:48.267Z,10.20
2023-04-19T03:47:18.264Z,10.20
2023-04-19T03:49:49.219Z,10.20
2023-04-19T03:52:18.425Z,10.20
2023-04-19T03:54:46.410Z,10.20
2023-04-19T03:57:26.537Z,10.30
2023-04-19T03:59:55.327Z,10.40
2023-04-19T04:02:23.099Z,10.30
2023-04-19T04:04:55.562Z,10.30
2023-04-19T04:07:24.810Z,10.40
2023-04-19T04:09:53.709Z,10.50
2023-04-19T04:12:21.314Z,10.60
2023-04-19T04:14:49.637Z,10.50
2023-04-19T04:17:17.470Z,10.40
2023-04-19T04:19:45.279Z,10.40
2023-04-19T04:22:13.240Z,10.40
2023-04-19T04:24:44.063Z,10.50
2023-04-19T04:27:21.788Z,10.40
2023-04-19T04:29:52.023Z,10.50
2023-04-19T04:32:23.316Z,10.40
2023-04-19T04:34:55.588Z,10.60
2023-04-19T04:37:34.585Z,10.50
2023-04-19T04:40:05.888Z,10.60
2023-04-19T04:42:35.741Z,10.60
2023-04-19T04:45:04.773Z,10.70
2023-04-19T04:47:34.850Z,10.80
2023-04-19T04:50:06.242Z,10.80
2023-04-19T04:52:34.780Z,10.80
2023-04-19T04:55:09.898Z,10.90
2023-04-19T04:57:42.588Z,11.00
2023-04-19T05:00:15.878Z,10.90
2023-04-19T05:02:53.309Z,10.90
2023-04-19T05:05:21.211Z,10.90
2023-04-19T05:07:49.854Z,10.90
2023-04-19T05:10:17.878Z,11.00
2023-04-19T05:12:47.668Z,11.00
2023-04-19T05:15:15.423Z,11.10
2023-04-19T05:17:49.384Z,11.10
2023-04-19T05:20:16.990Z,11.10
2023-04-19T05:22:46.268Z,11.20
2023-04-19T05:25:13.955Z,11.20
2023-04-19T05:27:42.319Z,11.30
2023-04-19T05:30:11.136Z,11.40
2023-04-19T05:32:42.564Z,11.40
2023-04-19T05:35:12.349Z,11.40
2023-04-19T05:37:41.576Z,11.50
2023-04-19T05:40:10.385Z,11.60
2023-04-19T05:42:38.881Z,11.60
2023-04-19T05:45:07.540Z,11.70
2023-04-19T05:47:35.360Z,11.80
2023-04-19T05:50:21.526Z,11.90
2023-04-19T05:53:06.043Z,11.90
2023-04-19T05:55:33.779Z,12.00
2023-04-19T05:58:01.814Z,12.10
2023-04-19T06:00:31.080Z,12.20
2023-04-19T06:03:07.889Z,12.30
2023-04-19T06:05:36.169Z,12.00
2023-04-19T06:08:04.949Z,11.90
2023-04-19T06:10:44.589Z,12.00
2023-04-19T06:13:20.958Z,11.90
2023-04-19T06:15:49.215Z,12.10
2023-04-19T06:18:18.841Z,12.30
2023-04-19T06:20:47.294Z,12.40
2023-04-19T06:23:15.224Z,12.40
2023-04-19T06:25:43.365Z,12.30
2023-04-19T06:28:11.242Z,12.30
2023-04-19T06:30:38.783Z,12.30
2023-04-19T06:33:06.637Z,12.30
2023-04-19T06:35:34.229Z,12.60
2023-04-19T06:38:02.297Z,12.70
2023-04-19T06:40:30.146Z,12.70
2023-04-19T06:42:57.987Z,12.70
2023-04-19T06:45:26.235Z,12.70
2023-04-19T06:47:53.774Z,12.90
2023-04-19T06:50:21.752Z,13.10
2023-04-19T06:52:49.463Z,12.90
2023-04-19T06:55:17.032Z,13.00
2023-04-19T06:57:44.598Z,13.00
2023-04-19T07:00:13.943Z,13.10
2023-04-19T07:02:41.665Z,13.20
2023-04-19T07:05:09.766Z,13.20
2023-04-19T07:07:38.291Z,13.20
2023-04-19T07:10:06.467Z,13.30
2023-04-19T07:12:33.996Z,13.50
2023-04-19T07:15:01.628Z,13.60
2023-04-19T07:17:29.625Z,13.60
2023-04-19T07:19:57.761Z,13.90
2023-04-19T07:22:25.390Z,14.00
2023-04-19T07:24:54.000Z,14.10
2023-04-19T07:27:21.694Z,14.10
2023-04-19T07:29:49.275Z,14.20
2023-04-19T07:32:17.311Z,14.30
2023-04-19T07:34:46.008Z,14.30
2023-04-19T07:37:14.387Z,14.30
2023-04-19T07:39:42.001Z,14.40
2023-04-19T07:42:09.624Z,14.50
2023-04-19T07:44:37.259Z,14.50
2023-04-19T07:47:08.149Z,14.60
2023-04-19T07:49:35.723Z,14.60
2023-04-19T07:52:06.908Z,15.00
2023-04-19T07:54:34.643Z,15.10
2023-04-19T07:57:02.266Z,14.90
2023-04-19T07:59:30.460Z,14.90
2023-04-19T08:01:58.101Z,15.30
2023-04-19T08:04:26.433Z,15.40
2023-04-19T08:06:55.334Z,15.30
2023-04-19T08:09:22.952Z,15.40
2023-04-19T08:11:50.522Z,15.60
2023-04-19T08:14:32.532Z,15.70
2023-04-19T08:19:35.239Z,15.90
2023-04-19T08:22:04.632Z,15.70
2023-04-19T08:24:32.490Z,15.90
2023-04-19T08:27:00.331Z,16.10
2023-04-19T08:29:27.905Z,16.20
2023-04-19T08:31:55.495Z,16.30
2023-04-19T08:34:23.109Z,16.80
2023-04-19T08:37:02.867Z,16.90
2023-04-19T08:39:34.139Z,17.00
2023-04-19T08:42:12.582Z,17.10
2023-04-19T08:45:13.640Z,17.30
2023-04-19T08:47:56.201Z,16.80
2023-04-19T08:50:33.144Z,16.30
2023-04-19T08:55:34.498Z,16.60
2023-04-19T08:58:07.646Z,16.20
2023-04-19T09:00:41.375Z,16.10
2023-04-19T09:03:09.698Z,16.20
2023-04-19T09:05:37.632Z,16.10
2023-04-19T09:08:25.254Z,16.40
2023-04-19T09:11:03.472Z,15.80
2023-04-19T09:13:32.306Z,15.90
2023-04-19T09:16:04.907Z,15.80
2023-04-19T09:18:35.772Z,15.80
2023-04-19T09:21:05.772Z,15.80
2023-04-19T09:23:33.529Z,15.60
2023-04-19T09:28:33.314Z,15.50
2023-04-19T09:31:33.140Z,15.40
2023-04-19T09:34:16.009Z,15.40
2023-04-19T09:36:44.013Z,15.40
2023-04-19T09:39:12.405Z,15.30
2023-04-19T09:41:53.584Z,15.60
2023-04-19T09:44:52.987Z,16.20
2023-04-19T09:47:24.427Z,16.80
2023-04-19T09:50:18.781Z,16.90
2023-04-19T09:52:51.036Z,16.90
2023-04-19T09:57:51.904Z,17.50
2023-04-19T10:00:21.763Z,17.80
2023-04-19T10:02:57.829Z,17.60
2023-04-19T10:05:26.826Z,17.00
2023-04-19T10:07:59.919Z,17.20
2023-04-19T10:18:08.198Z,17.40
2023-04-19T10:20:47.280Z,17.70
2023-04-19T10:23:15.427Z,17.20
2023-04-19T10:25:47.678Z,16.90
2023-04-19T10:28:18.390Z,17.00
2023-04-19T10:30:57.320Z,16.90
2023-04-19T10:33:29.794Z,17.10
2023-04-19T10:35:59.333Z,17.40
2023-04-19T10:38:55.714Z,17.30
2023-04-19T10:41:23.860Z,17.30
2023-04-19T10:44:00.757Z,17.20
2023-04-19T10:46:30.061Z,17.10
2023-04-19T10:48:58.551Z,16.90
2023-04-19T10:51:55.370Z,16.80
2023-04-19T10:54:35.846Z,17.20
2023-04-19T10:57:06.028Z,17.00
2023-04-19T10:59:38.081Z,17.30
2023-04-19T11:02:26.219Z,17.60
2023-04-19T11:04:53.922Z,18.00
2023-04-19T11:07:21.601Z,18.30
2023-04-19T11:09:51.177Z,18.60
2023-04-19T11:12:20.108Z,18.80
2023-04-19T11:14:51.848Z,18.50
2023-04-19T11:17:27.606Z,19.10
2023-04-19T11:19:57.448Z,18.60
2023-04-19T11:22:32.934Z,18.60
2023-04-19T11:25:11.278Z,18.20
2023-04-19T11:27:43.120Z,18.80
2023-04-19T11:30:17.108Z,18.30
2023-04-19T11:32:49.165Z,18.40
2023-04-19T11:35:24.608Z,19.00
2023-04-19T11:37:53.555Z,19.70
2023-04-19T11:40:26.081Z,18.80
2023-04-19T11:42:56.035Z,18.00
2023-04-19T11:45:34.769Z,18.30
2023-04-19T11:48:17.447Z,19.00
2023-04-19T11:50:47.056Z,18.60
2023-04-19T11:53:18.899Z,18.10
2023-04-19T11:55:51.434Z,19.10
2023-04-19T11:58:45.476Z,18.30
2023-04-19T12:01:15.023Z,18.30
2023-04-19T12:03:47.646Z,18.70
2023-04-19T12:06:24.527Z,19.00
2023-04-19T12:08:54.302Z,18.50
2023-04-19T12:11:27.300Z,18.40
2023-04-19T12:14:14.927Z,19.00
2023-04-19T12:16:45.037Z,19.10
2023-04-19T12:19:18.702Z,19.00
2023-04-19T12:21:47.680Z,18.60
2023-04-19T12:24:16.661Z,18.80
2023-04-19T12:26:56.374Z,18.80
2023-04-19T12:29:24.127Z,18.40
2023-04-19T12:31:51.828Z,18.20
2023-04-19T12:34:19.514Z,18.40
2023-04-19T12:36:47.182Z,18.00
2023-04-19T12:39:14.944Z,17.30
2023-04-19T12:41:42.625Z,16.60
2023-04-19T12:44:10.204Z,17.00
2023-04-19T12:46:37.959Z,16.30
2023-04-19T12:49:05.827Z,16.50
2023-04-19T12:51:33.887Z,16.30
2023-04-19T12:54:02.574Z,16.10
2023-04-19T12:56:30.295Z,15.70
2023-04-19T12:58:58.052Z,15.70
2023-04-19T13:01:26.179Z,15.60
2023-04-19T13:03:56.228Z,15.40
2023-04-19T13:06:26.423Z,15.20
2023-04-19T13:08:55.060Z,14.80
2023-04-19T13:11:23.605Z,14.50
2023-04-19T13:13:52.657Z,12.90
2023-04-19T13:16:20.534Z,11.50
2023-04-19T13:18:48.683Z,10.90
2023-04-19T13:21:16.420Z,11.70
2023-04-19T13:23:45.207Z,11.20
2023-04-19T13:26:13.282Z,11.30
2023-04-19T13:28:42.557Z,10.90
2023-04-19T13:31:11.630Z,10.90
2023-04-19T13:33:39.434Z,11.30
2023-04-19T13:36:07.431Z,11.40
2023-04-19T13:38:35.210Z,11.30
2023-04-19T13:41:04.359Z,12.10
2023-04-19T13:43:32.320Z,11.80
2023-04-19T13:45:59.990Z,12.40
2023-04-19T13:48:29.086Z,12.20
2023-04-19T13:50:57.754Z,12.30
2023-04-19T13:53:27.614Z,12.40
2023-04-19T13:55:56.216Z,12.50
2023-04-19T13:58:27.028Z,12.80
2023-04-19T14:00:54.764Z,12.80
2023-04-19T14:03:24.305Z,12.50
2023-04-19T14:05:52.145Z,12.50
2023-04-19T14:08:19.773Z,12.20
2023-04-19T14:10:49.110Z,12.00
2023-04-19T14:13:17.372Z,11.90
2023-04-19T14:15:45.079Z,12.10
2023-04-19T14:18:12.989Z,12.30
2023-04-19T14:20:40.643Z,12.40
2023-04-19T14:23:08.336Z,12.40
2023-04-19T14:25:36.903Z,12.00
2023-04-19T14:28:04.664Z,11.50
2023-04-19T14:30:32.323Z,11.40
2023-04-19T14:32:59.986Z,11.60
2023-04-19T14:35:27.878Z,11.50
2023-04-19T14:37:55.509Z,11.20
2023-04-19T14:40:23.804Z,11.10
2023-04-19T14:42:51.427Z,11.20
2023-04-19T14:45:19.586Z,11.30
2023-04-19T14:47:47.218Z,11.10
2023-04-19T14:50:14.806Z,10.80
2023-04-19T14:52:42.371Z,11.00
2023-04-19T14:55:11.006Z,11.30
2023-04-19T14:57:38.715Z,11.20
2023-04-19T15:00:06.986Z,11.20
2023-04-19T15:02:34.837Z,11.00
2023-04-19T15:05:02.802Z,10.80
2023-04-19T15:07:30.576Z,10.60
2023-04-19T15:09:58.917Z,10.50
2023-04-19T15:12:26.515Z,10.70
2023-04-19T15:14:54.119Z,11.20
2023-04-19T15:17:22.769Z,11.20
2023-04-19T15:19:50.363Z,11.00
2023-04-19T15:22:17.955Z,10.60
2023-04-19T15:24:46.124Z,10.10
2023-04-19T15:27:13.921Z,10.20
2023-04-19T15:29:41.786Z,10.20
2023-04-19T15:32:09.365Z,10.60
2023-04-19T15:34:37.217Z,10.50
2023-04-19T15:37:06.487Z,10.70
2023-04-19T15:39:34.100Z,10.60
2023-04-19T15:42:02.268Z,10.80
2023-04-19T15:44:30.186Z,10.90
2023-04-19T15:46:57.934Z,10.90
2023-04-19T15:49:25.798Z,11.00
2023-04-19T15:51:53.362Z,10.70
2023-04-19T15:54:23.035Z,10.70
2023-04-19T15:56:51.064Z,10.70
2023-04-19T15:59:18.958Z,10.60
2023-04-19T16:01:46.578Z,10.80
2023-04-19T16:04:15.513Z,10.90
2023-04-19T16:06:43.420Z,10.80
2023-04-19T16:09:11.146Z,10.90
2023-04-19T16:11:39.306Z,11.10
2023-04-19T16:14:06.859Z,11.00
2023-04-19T16:16:34.676Z,11.10
2023-04-19T16:19:02.694Z,11.00
2023-04-19T16:21:30.396Z,11.20
2023-04-19T16:24:00.905Z,11.30
2023-04-19T16:26:28.702Z,11.40
2023-04-19T16:28:56.573Z,11.30
2023-04-19T16:31:24.178Z,11.40
2023-04-19T16:33:51.934Z,11.30
2023-04-19T16:36:19.640Z,11.30
2023-04-19T16:38:47.267Z,11.30
2023-04-19T16:41:16.288Z,11.30
2023-04-19T16:43:44.007Z,11.30
2023-04-19T16:46:11.701Z,11.50
2023-04-19T16:48:39.522Z,11.60
2023-04-19T16:51:07.541Z,11.60
2023-04-19T16:53:35.530Z,11.60
2023-04-19T16:56:03.783Z,11.40
2023-04-19T16:58:31.480Z,11.40
2023-04-19T17:00:59.356Z,11.30
2023-04-19T17:03:29.667Z,11.30
2023-04-19T17:05:58.577Z,11.30
2023-04-19T17:08:26.790Z,11.30
2023-04-19T17:10:54.984Z,11.30
2023-04-19T17:13:22.938Z,11.30
2023-04-19T17:15:51.352Z,11.30
2023-04-19T17:18:19.066Z,11.40
2023-04-19T17:20:47.177Z,11.40
2023-04-19T17:23:15.367Z,11.20
2023-04-19T17:25:43.247Z,10.90
2023-04-19T17:28:11.282Z,10.90
2023-04-19T17:30:40.481Z,11.00
2023-04-19T17:33:08.914Z,10.50
2023-04-19T17:35:38.272Z,10.40
2023-04-19T17:38:06.329Z,10.30
2023-04-19T17:40:34.641Z,10.50
2023-04-19T17:43:03.454Z,10.70
2023-04-19T17:45:31.535Z,10.60
2023-04-19T17:48:00.196Z,10.60
2023-04-19T17:50:30.383Z,10.30
2023-04-19T17:52:58.409Z,10.40
2023-04-19T17:55:26.980Z,10.50
2023-04-19T17:57:55.934Z,10.30
2023-04-19T18:00:24.517Z,10.40
2023-04-19T18:02:52.893Z,10.40
2023-04-19T18:05:20.778Z,10.40
2023-04-19T18:07:51.022Z,10.40
2023-04-19T18:10:19.094Z,10.40
2023-04-19T18:12:47.861Z,10.20
2023-04-19T18:15:16.204Z,10.00
2023-04-19T18:17:44.830Z,10.10
2023-04-19T18:20:14.107Z,10.00
2023-04-19T18:22:42.429Z,10.10
2023-04-19T18:25:12.079Z,10.20
2023-04-19T18:27:44.275Z,10.20
2023-04-19T18:30:13.153Z,10.20
2023-04-19T18:32:42.153Z,10.30
2023-04-19T18:35:11.793Z,10.20
2023-04-19T18:37:39.912Z,10.10
2023-04-19T18:40:08.451Z,10.00
2023-04-19T18:42:36.926Z,9.80
2023-04-19T18:45:07.199Z,9.70
2023-04-19T18:47:36.025Z,9.50
2023-04-19T18:50:07.352Z,9.70
2023-04-19T18:52:46.540Z,9.50
2023-04-19T18:55:15.161Z,9.50
2023-04-19T18:57:44.360Z,9.50
2023-04-19T19:00:20.124Z,9.50
2023-04-19T19:02:48.836Z,9.50
2023-04-19T19:05:17.405Z,9.50
2023-04-19T19:07:46.017Z,9.40
2023-04-19T19:10:20.933Z,9.40
2023-04-19T19:12:50.701Z,9.40
2023-04-19T19:15:20.267Z,9.30
2023-04-19T19:17:50.196Z,9.30
2023-04-19T19:20:20.101Z,9.40
2023-04-19T19:22:51.310Z,9.30
2023-04-19T19:25:20.527Z,9.10
2023-04-19T19:28:06.370Z,9.00
2023-04-19T19:30:42.003Z,9.00
2023-04-19T19:33:10.880Z,9.10
2023-04-19T19:35:40.187Z,9.00
2023-04-19T19:38:09.314Z,8.90
2023-04-19T19:40:54.373Z,8.80
2023-04-19T19:43:26.470Z,8.80
2023-04-19T19:45:55.884Z,8.80
2023-04-19T19:48:25.444Z,8.70
2023-04-19T19:51:24.974Z,8.60
2023-04-19T19:53:44.770Z,8.60
2023-04-19T19:56:18.954Z,8.70
2023-04-19T19:58:52.397Z,8.70
2023-04-19T20:01:22.973Z,8.60
2023-04-19T20:03:52.193Z,8.60
2023-04-19T20:08:52.391Z,8.50
2023-04-19T20:11:21.070Z,8.50
2023-04-19T20:13:51.676Z,8.40
2023-04-19T20:16:20.389Z,8.50
2023-04-19T20:18:55.113Z,8.50
2023-04-19T20:21:23.825Z,8.50
2023-04-19T20:23:53.243Z,8.50
2023-04-19T20:26:23.942Z,8.50
2023-04-19T20:28:53.392Z,8.50
2023-04-19T20:31:23.696Z,8.50
2023-04-19T20:33:53.325Z,8.50
2023-04-19T20:36:25.974Z,8.50
2023-04-19T20:38:57.796Z,8.40
2023-04-19T20:41:27.493Z,8.40
2023-04-19T20:43:57.559Z,8.40
2023-04-19T20:46:26.425Z,8.40
2023-04-19T20:48:56.017Z,8.40
2023-04-19T20:51:24.868Z,8.40
2023-04-19T20:53:53.637Z,8.20
2023-04-19T20:56:21.830Z,8.30
2023-04-19T20:58:49.562Z,8.30
2023-04-19T21:01:17.662Z,8.40
2023-04-19T21:03:46.189Z,8.40
2023-04-19T21:06:14.134Z,8.30
2023-04-19T21:08:42.010Z,8.30
2023-04-19T21:11:09.610Z,8.30
2023-04-19T21:13:37.254Z,8.30
2023-04-19T21:16:05.346Z,8.30
2023-04-19T21:18:32.971Z,8.20
2023-04-19T21:21:00.573Z,8.10
2023-04-19T21:23:28.212Z,8.10
2023-04-19T21:25:56.153Z,8.20
2023-04-19T21:28:25.126Z,8.20
2023-04-19T21:30:53.788Z,8.20
2023-04-19T21:33:21.354Z,8.20
2023-04-19T21:35:49.151Z,8.30
2023-04-19T21:38:16.871Z,8.20
2023-04-19T21:40:44.606Z,8.10
2023-04-19T21:43:12.476Z,8.10
2023-04-19T21:45:40.109Z,8.10
2023-04-19T21:48:07.700Z,8.20
2023-04-19T21:50:35.524Z,8.30
2023-04-19T21:53:03.470Z,8.20
2023-04-19T21:55:32.532Z,8.10
2023-04-19T21:58:01.503Z,8.00
2023-04-19T22:00:29.248Z,8.00
2023-04-19T22:02:57.059Z,7.80
2023-04-19T22:05:24.725Z,7.80
2023-04-19T22:07:52.401Z,7.90
2023-04-19T22:10:19.965Z,8.00
2023-04-19T22:12:57.904Z,7.80
2023-04-19T22:15:27.156Z,7.90
2023-04-19T22:17:54.912Z,7.90
2023-04-19T22:20:23.828Z,7.90
2023-04-19T22:22:51.933Z,7.60
2023-04-19T22:25:19.848Z,7.30
2023-04-19T22:27:48.942Z,7.50
2023-04-19T22:30:16.631Z,7.50
2023-04-19T22:32:44.324Z,7.60
2023-04-19T22:35:12.084Z,7.70
2023-04-19T22:37:39.639Z,7.80
2023-04-19T22:40:08.029Z,7.50
2023-04-19T22:42:37.237Z,7.50
2023-04-19T22:45:05.298Z,7.60
2023-04-19T22:47:33.340Z,7.60
2023-04-19T22:50:01.009Z,7.70
2023-04-19T22:52:28.580Z,7.70
2023-04-19T22:54:56.172Z,7.80
2023-04-19T22:57:23.770Z,7.70
2023-04-19T22:59:51.464Z,7.60
2023-04-19T23:02:19.503Z,7.70
2023-04-19T23:04:48.663Z,7.80
2023-04-19T23:07:16.403Z,7.80
2023-04-19T23:09:44.126Z,7.80
2023-04-19T23:12:16.023Z,7.90
2023-04-19T23:14:48.564Z,8.00
2023-04-19T23:17:17.331Z,8.10
2023-04-19T23:19:44.921Z,8.00
2023-04-19T23:22:12.466Z,8.10
2023-04-19T23:24:40.458Z,8.20
2023-04-19T23:27:07.982Z,8.30
2023-04-19T23:29:35.770Z,8.20
2023-04-19T23:32:03.560Z,8.10
2023-04-19T23:34:31.328Z,8.10
2023-04-19T23:36:59.691Z,8.10
2023-04-19T23:39:27.412Z,8.20
2023-04-19T23:41:55.450Z,8.30
2023-04-19T23:44:23.370Z,8.20
2023-04-19T23:46:51.095Z,8.20
2023-04-19T23:49:19.378Z,8.10
2023-04-19T23:51:53.293Z,8.40
2023-04-19T23:54:25.994Z,8.40
2023-04-19T23:56:54.192Z,8.50
2023-04-19T23:59:22.514Z,8.60
